sensor_id;sensor_type;location;lat;lon;timestamp;pressure;altitude;pressure_sealevel;temperature;humidity
28921;BME280;16035;53.594;9.952;2023-07-24T00:00:27;100198.94;;;18.92;78.83
28921;BME280;16035;53.594;9.952;2023-07-24T00:02:27;100202.50;;;18.93;78.64
28921;BME280;16035;53.594;9.952;2023-07-24T00:04:27;100196.50;;;18.91;78.73
28921;BME280;16035;53.594;9.952;2023-07-24T00:06:29;100203.97;;;18.90;78.87
28921;BME280;16035;53.594;9.952;2023-07-24T00:08:30;100197.66;;;18.90;78.84
28921;BME280;16035;53.594;9.952;2023-07-24T00:10:31;100193.75;;;18.91;78.67
28921;BME280;16035;53.594;9.952;2023-07-24T00:12:31;100191.00;;;18.91;78.70
28921;BME280;16035;53.594;9.952;2023-07-24T00:14:31;100189.41;;;18.90;78.64
28921;BME280;16035;53.594;9.952;2023-07-24T00:16:32;100189.41;;;18.90;78.91
28921;BME280;16035;53.594;9.952;2023-07-24T00:18:32;100184.69;;;18.90;78.55
28921;BME280;16035;53.594;9.952;2023-07-24T00:20:32;100183.09;;;18.89;79.03
28921;BME280;16035;53.594;9.952;2023-07-24T00:22:33;100186.16;;;18.88;78.87
28921;BME280;16035;53.594;9.952;2023-07-24T00:24:33;100182.28;;;18.89;78.88
28921;BME280;16035;53.594;9.952;2023-07-24T00:26:34;100174.81;;;18.89;78.64
28921;BME280;16035;53.594;9.952;2023-07-24T00:28:34;100178.69;;;18.88;78.95
28921;BME280;16035;53.594;9.952;2023-07-24T00:30:34;100179.53;;;18.89;79.21
28921;BME280;16035;53.594;9.952;2023-07-24T00:32:34;100174.03;;;18.89;78.91
28921;BME280;16035;53.594;9.952;2023-07-24T00:34:35;100181.44;;;18.88;78.95
28921;BME280;16035;53.594;9.952;2023-07-24T00:36:37;100177.09;;;18.87;78.96
28921;BME280;16035;53.594;9.952;2023-07-24T00:38:37;100183.75;;;18.86;78.75
28921;BME280;16035;53.594;9.952;2023-07-24T00:40:37;100180.97;;;18.86;78.91
28921;BME280;16035;53.594;9.952;2023-07-24T00:42:38;100183.75;;;18.86;78.86
28921;BME280;16035;53.594;9.952;2023-07-24T00:44:38;100186.03;;;18.84;78.91
28921;BME280;16035;53.594;9.952;2023-07-24T00:46:38;100181.63;;;18.83;78.67
28921;BME280;16035;53.594;9.952;2023-07-24T00:48:40;100184.38;;;18.83;78.93
28921;BME280;16035;53.594;9.952;2023-07-24T00:50:42;100180.53;;;18.84;79.19
28921;BME280;16035;53.594;9.952;2023-07-24T00:52:43;100169.81;;;18.83;78.95
28921;BME280;16035;53.594;9.952;2023-07-24T00:54:44;100165.47;;;18.82;79.03
28921;BME280;16035;53.594;9.952;2023-07-24T00:56:45;100170.97;;;18.82;78.90
28921;BME280;16035;53.594;9.952;2023-07-24T00:58:46;100180.03;;;18.82;79.29
28921;BME280;16035;53.594;9.952;2023-07-24T01:00:47;100174.19;;;18.84;79.18
28921;BME280;16035;53.594;9.952;2023-07-24T01:02:49;100174.19;;;18.84;79.27
28921;BME280;16035;53.594;9.952;2023-07-24T01:04:49;100169.16;;;18.86;79.14
28921;BME280;16035;53.594;9.952;2023-07-24T01:06:50;100175.47;;;18.86;79.27
28921;BME280;16035;53.594;9.952;2023-07-24T01:08:50;100171.59;;;18.87;79.30
28921;BME280;16035;53.594;9.952;2023-07-24T01:10:50;100178.84;;;18.92;79.14
28921;BME280;16035;53.594;9.952;2023-07-24T01:12:59;100179.19;;;18.90;79.20
28921;BME280;16035;53.594;9.952;2023-07-24T01:15:08;100173.84;;;18.94;79.29
28921;BME280;16035;53.594;9.952;2023-07-24T01:17:14;100173.84;;;18.94;79.24
28921;BME280;16035;53.594;9.952;2023-07-24T01:19:36;100172.69;;;18.95;79.41
28921;BME280;16035;53.594;9.952;2023-07-24T01:22:02;100167.97;;;18.96;79.49
28921;BME280;16035;53.594;9.952;2023-07-24T01:24:24;100169.59;;;18.97;79.37
28921;BME280;16035;53.594;9.952;2023-07-24T01:26:29;100169.75;;;19.00;79.08
28921;BME280;16035;53.594;9.952;2023-07-24T01:28:30;100165.03;;;19.01;79.16
28921;BME280;16035;53.594;9.952;2023-07-24T01:30:30;100171.84;;;19.03;79.19
28921;BME280;16035;53.594;9.952;2023-07-24T01:32:30;100169.56;;;19.05;79.17
28921;BME280;16035;53.594;9.952;2023-07-24T01:34:31;100172.31;;;19.05;79.05
28921;BME280;16035;53.594;9.952;2023-07-24T01:36:31;100158.22;;;19.07;79.29
28921;BME280;16035;53.594;9.952;2023-07-24T01:38:34;100160.97;;;19.07;79.28
28921;BME280;16035;53.594;9.952;2023-07-24T01:40:35;100159.69;;;19.04;79.15
28921;BME280;16035;53.594;9.952;2023-07-24T01:42:36;100152.06;;;19.01;79.26
28921;BME280;16035;53.594;9.952;2023-07-24T01:44:36;100154.53;;;19.03;79.20
28921;BME280;16035;53.594;9.952;2023-07-24T01:46:36;100160.03;;;19.03;79.37
28921;BME280;16035;53.594;9.952;2023-07-24T01:48:37;100152.22;;;19.05;79.13
28921;BME280;16035;53.594;9.952;2023-07-24T01:50:37;100154.97;;;19.05;79.08
28921;BME280;16035;53.594;9.952;2023-07-24T01:52:37;100153.38;;;19.04;79.15
28921;BME280;16035;53.594;9.952;2023-07-24T01:54:38;100160.50;;;19.05;79.42
28921;BME280;16035;53.594;9.952;2023-07-24T01:56:39;100157.28;;;19.03;79.18
28921;BME280;16035;53.594;9.952;2023-07-24T01:58:39;100150.13;;;19.02;79.52
28921;BME280;16035;53.594;9.952;2023-07-24T02:00:40;100154.84;;;19.01;79.21
28921;BME280;16035;53.594;9.952;2023-07-24T02:02:40;100154.03;;;19.01;79.57
28921;BME280;16035;53.594;9.952;2023-07-24T02:04:40;100158.72;;;19.00;79.77
28921;BME280;16035;53.594;9.952;2023-07-24T02:06:41;100157.59;;;19.01;79.39
28921;BME280;16035;53.594;9.952;2023-07-24T02:08:41;100154.53;;;19.03;79.17
28921;BME280;16035;53.594;9.952;2023-07-24T02:10:50;100150.97;;;19.02;79.45
28921;BME280;16035;53.594;9.952;2023-07-24T02:12:51;100156.47;;;19.02;79.47
28921;BME280;16035;53.594;9.952;2023-07-24T02:14:51;100142.22;;;19.00;79.33
28921;BME280;16035;53.594;9.952;2023-07-24T02:16:52;100138.66;;;19.00;79.19
28921;BME280;16035;53.594;9.952;2023-07-24T02:18:52;100150.81;;;18.99;79.35
28921;BME280;16035;53.594;9.952;2023-07-24T02:20:52;100141.75;;;18.98;79.29
28921;BME280;16035;53.594;9.952;2023-07-24T02:22:53;100149.22;;;18.98;79.56
28921;BME280;16035;53.594;9.952;2023-07-24T02:24:53;100146.44;;;18.98;79.57
28921;BME280;16035;53.594;9.952;2023-07-24T02:26:53;100147.25;;;18.98;79.65
28921;BME280;16035;53.594;9.952;2023-07-24T02:28:54;100149.66;;;19.00;79.38
28921;BME280;16035;53.594;9.952;2023-07-24T02:30:54;100148.88;;;18.99;79.34
28921;BME280;16035;53.594;9.952;2023-07-24T02:32:56;100145.31;;;18.99;79.82
28921;BME280;16035;53.594;9.952;2023-07-24T02:34:57;100134.28;;;18.99;79.58
28921;BME280;16035;53.594;9.952;2023-07-24T02:36:57;100142.22;;;19.00;79.44
28921;BME280;16035;53.594;9.952;2023-07-24T02:38:57;100139.31;;;18.97;79.33
28921;BME280;16035;53.594;9.952;2023-07-24T02:40:58;100148.72;;;18.96;79.53
28921;BME280;16035;53.594;9.952;2023-07-24T02:42:58;100146.63;;;18.92;79.41
28921;BME280;16035;53.594;9.952;2023-07-24T02:44:58;100152.47;;;18.91;79.48
28921;BME280;16035;53.594;9.952;2023-07-24T02:46:59;100148.09;;;18.90;79.61
28921;BME280;16035;53.594;9.952;2023-07-24T02:48:59;100147.28;;;18.89;79.76
28921;BME280;16035;53.594;9.952;2023-07-24T02:50:59;100155.06;;;18.87;79.65
28921;BME280;16035;53.594;9.952;2023-07-24T02:53:00;100149.56;;;18.87;80.00
28921;BME280;16035;53.594;9.952;2023-07-24T02:55:00;100141.63;;;18.86;79.62
28921;BME280;16035;53.594;9.952;2023-07-24T02:57:01;100147.59;;;18.88;79.68
28921;BME280;16035;53.594;9.952;2023-07-24T02:59:02;100136.13;;;18.86;79.61
28921;BME280;16035;53.594;9.952;2023-07-24T03:01:06;100152.66;;;18.86;79.65
28921;BME280;16035;53.594;9.952;2023-07-24T03:03:07;100143.59;;;18.85;79.49
28921;BME280;16035;53.594;9.952;2023-07-24T03:05:08;100139.22;;;18.84;79.77
28921;BME280;16035;53.594;9.952;2023-07-24T03:07:08;100155.41;;;18.86;79.81
28921;BME280;16035;53.594;9.952;2023-07-24T03:09:08;100151.84;;;18.85;79.89
28921;BME280;16035;53.594;9.952;2023-07-24T03:11:09;100156.22;;;18.86;79.71
28921;BME280;16035;53.594;9.952;2023-07-24T03:13:09;100155.06;;;18.87;79.70
28921;BME280;16035;53.594;9.952;2023-07-24T03:15:09;100155.56;;;18.89;79.92
28921;BME280;16035;53.594;9.952;2023-07-24T03:17:10;100155.72;;;18.93;79.83
28921;BME280;16035;53.594;9.952;2023-07-24T03:19:11;100151.47;;;18.96;79.63
28921;BME280;16035;53.594;9.952;2023-07-24T03:21:11;100148.38;;;18.97;79.94
28921;BME280;16035;53.594;9.952;2023-07-24T03:23:12;100148.53;;;19.01;79.78
28921;BME280;16035;53.594;9.952;2023-07-24T03:25:13;100144.63;;;19.02;79.76
28921;BME280;16035;53.594;9.952;2023-07-24T03:27:13;100140.25;;;19.01;79.64
28921;BME280;16035;53.594;9.952;2023-07-24T03:29:13;100139.00;;;18.98;79.59
28921;BME280;16035;53.594;9.952;2023-07-24T03:31:14;100140.94;;;18.98;79.66
28921;BME280;16035;53.594;9.952;2023-07-24T03:33:16;100132.69;;;18.98;79.68
28921;BME280;16035;53.594;9.952;2023-07-24T03:35:16;100130.72;;;18.98;79.84
28921;BME280;16035;53.594;9.952;2023-07-24T03:37:17;100130.38;;;19.00;79.50
28921;BME280;16035;53.594;9.952;2023-07-24T03:39:17;100133.94;;;19.00;79.87
28921;BME280;16035;53.594;9.952;2023-07-24T03:41:18;100118.22;;;19.01;79.80
28921;BME280;16035;53.594;9.952;2023-07-24T03:43:18;100122.59;;;19.02;79.65
28921;BME280;16035;53.594;9.952;2023-07-24T03:45:18;100128.94;;;19.02;79.67
28921;BME280;16035;53.594;9.952;2023-07-24T03:47:19;100132.00;;;19.01;79.53
28921;BME280;16035;53.594;9.952;2023-07-24T03:49:19;100126.34;;;18.97;79.43
28921;BME280;16035;53.594;9.952;2023-07-24T03:51:19;100136.56;;;18.97;79.67
28921;BME280;16035;53.594;9.952;2023-07-24T03:53:19;100141.59;;;18.94;79.56
28921;BME280;16035;53.594;9.952;2023-07-24T03:55:20;100133.69;;;18.93;79.55
28921;BME280;16035;53.594;9.952;2023-07-24T03:57:20;100136.75;;;18.91;79.57
28921;BME280;16035;53.594;9.952;2023-07-24T03:59:20;100137.09;;;18.90;79.65
28921;BME280;16035;53.594;9.952;2023-07-24T04:01:21;100144.84;;;18.88;79.68
28921;BME280;16035;53.594;9.952;2023-07-24T04:03:21;100149.56;;;18.87;79.64
28921;BME280;16035;53.594;9.952;2023-07-24T04:05:22;100140.50;;;18.87;79.71
28921;BME280;16035;53.594;9.952;2023-07-24T04:07:22;100139.69;;;18.86;79.87
28921;BME280;16035;53.594;9.952;2023-07-24T04:09:22;100141.97;;;18.84;79.66
28921;BME280;16035;53.594;9.952;2023-07-24T04:11:22;100138.88;;;18.86;79.69
28921;BME280;16035;53.594;9.952;2023-07-24T04:13:23;100133.72;;;18.84;79.56
28921;BME280;16035;53.594;9.952;2023-07-24T04:15:23;100137.28;;;18.85;79.52
28921;BME280;16035;53.594;9.952;2023-07-24T04:17:23;100133.72;;;18.84;79.50
28921;BME280;16035;53.594;9.952;2023-07-24T04:19:24;100136.47;;;18.84;79.85
28921;BME280;16035;53.594;9.952;2023-07-24T04:21:24;100140.03;;;18.85;79.56
28921;BME280;16035;53.594;9.952;2023-07-24T04:23:24;100137.59;;;18.83;79.59
28921;BME280;16035;53.594;9.952;2023-07-24T04:25:25;100134.53;;;18.85;79.73
28921;BME280;16035;53.594;9.952;2023-07-24T04:27:25;100137.28;;;18.85;79.46
28921;BME280;16035;53.594;9.952;2023-07-24T04:29:25;100136.13;;;18.86;79.55
28921;BME280;16035;53.594;9.952;2023-07-24T04:31:26;100140.16;;;18.88;79.43
28921;BME280;16035;53.594;9.952;2023-07-24T04:33:26;100137.09;;;18.90;79.66
28921;BME280;16035;53.594;9.952;2023-07-24T04:35:27;100135.28;;;18.94;79.57
28921;BME280;16035;53.594;9.952;2023-07-24T04:37:27;100142.06;;;18.97;79.59
28921;BME280;16035;53.594;9.952;2023-07-24T04:39:28;100141.25;;;18.96;79.57
28921;BME280;16035;53.594;9.952;2023-07-24T04:41:28;100143.69;;;18.98;79.65
28921;BME280;16035;53.594;9.952;2023-07-24T04:43:29;100137.03;;;18.99;79.55
28921;BME280;16035;53.594;9.952;2023-07-24T04:45:29;100136.84;;;19.04;79.59
28921;BME280;16035;53.594;9.952;2023-07-24T04:47:29;100138.47;;;19.05;79.56
28921;BME280;16035;53.594;9.952;2023-07-24T04:49:30;100136.19;;;19.07;79.34
28921;BME280;16035;53.594;9.952;2023-07-24T04:51:31;100137.00;;;19.07;79.29
28921;BME280;16035;53.594;9.952;2023-07-24T04:53:31;100133.09;;;19.08;79.12
28921;BME280;16035;53.594;9.952;2023-07-24T04:55:31;100128.41;;;19.09;79.29
28921;BME280;16035;53.594;9.952;2023-07-24T04:57:31;100122.53;;;19.10;79.26
28921;BME280;16035;53.594;9.952;2023-07-24T04:59:32;100124.66;;;19.13;79.30
28921;BME280;16035;53.594;9.952;2023-07-24T05:01:32;100118.47;;;19.16;79.20
28921;BME280;16035;53.594;9.952;2023-07-24T05:03:32;100120.09;;;19.17;79.00
28921;BME280;16035;53.594;9.952;2023-07-24T05:05:33;100120.88;;;19.18;79.08
28921;BME280;16035;53.594;9.952;2023-07-24T05:07:33;100117.78;;;19.19;79.12
28921;BME280;16035;53.594;9.952;2023-07-24T05:09:33;100112.78;;;19.22;79.12
28921;BME280;16035;53.594;9.952;2023-07-24T05:11:34;100111.28;;;19.24;78.98
28921;BME280;16035;53.594;9.952;2023-07-24T05:13:34;100114.03;;;19.24;78.91
28921;BME280;16035;53.594;9.952;2023-07-24T05:15:34;100107.06;;;19.27;78.95
28921;BME280;16035;53.594;9.952;2023-07-24T05:17:35;100105.91;;;19.28;78.88
28921;BME280;16035;53.594;9.952;2023-07-24T05:19:35;100099.75;;;19.31;79.18
28921;BME280;16035;53.594;9.952;2023-07-24T05:21:35;100091.13;;;19.32;79.06
28921;BME280;16035;53.594;9.952;2023-07-24T05:23:36;100096.44;;;19.37;79.10
28921;BME280;16035;53.594;9.952;2023-07-24T05:25:36;100096.25;;;19.42;79.06
28921;BME280;16035;53.594;9.952;2023-07-24T05:27:36;100090.84;;;19.46;78.84
28921;BME280;16035;53.594;9.952;2023-07-24T05:29:37;100098.47;;;19.49;78.71
28921;BME280;16035;53.594;9.952;2023-07-24T05:31:38;100093.09;;;19.53;78.77
28921;BME280;16035;53.594;9.952;2023-07-24T05:33:38;100102.63;;;19.55;78.53
28921;BME280;16035;53.594;9.952;2023-07-24T05:35:38;100107.31;;;19.55;78.34
28921;BME280;16035;53.594;9.952;2023-07-24T05:37:39;100104.47;;;19.51;78.57
28921;BME280;16035;53.594;9.952;2023-07-24T05:39:39;100106.38;;;19.51;78.31
28921;BME280;16035;53.594;9.952;2023-07-24T05:41:39;100098.94;;;19.51;78.11
28921;BME280;16035;53.594;9.952;2023-07-24T05:43:40;100092.28;;;19.52;78.49
28921;BME280;16035;53.594;9.952;2023-07-24T05:45:40;100094.69;;;19.54;78.52
28921;BME280;16035;53.594;9.952;2023-07-24T05:47:40;100078.75;;;19.59;78.67
28921;BME280;16035;53.594;9.952;2023-07-24T05:49:40;100077.31;;;19.62;78.46
28921;BME280;16035;53.594;9.952;2023-07-24T05:51:41;100085.72;;;19.65;78.57
28921;BME280;16035;53.594;9.952;2023-07-24T05:53:41;100073.41;;;19.63;78.19
28921;BME280;16035;53.594;9.952;2023-07-24T05:55:42;100070.34;;;19.64;78.34
28921;BME280;16035;53.594;9.952;2023-07-24T05:57:44;100076.31;;;19.66;78.37
28921;BME280;16035;53.594;9.952;2023-07-24T05:59:44;100067.59;;;19.64;78.36
28921;BME280;16035;53.594;9.952;2023-07-24T06:01:45;100068.03;;;19.66;78.52
28921;BME280;16035;53.594;9.952;2023-07-24T06:03:45;100075.16;;;19.67;78.26
28921;BME280;16035;53.594;9.952;2023-07-24T06:05:45;100076.75;;;19.68;78.21
28921;BME280;16035;53.594;9.952;2023-07-24T06:07:46;100072.41;;;19.67;78.18
28921;BME280;16035;53.594;9.952;2023-07-24T06:09:47;100073.09;;;19.64;78.26
28921;BME280;16035;53.594;9.952;2023-07-24T06:11:47;100066.09;;;19.67;78.14
28921;BME280;16035;53.594;9.952;2023-07-24T06:13:47;100072.75;;;19.66;78.00
28921;BME280;16035;53.594;9.952;2023-07-24T06:15:49;100068.50;;;19.68;78.04
28921;BME280;16035;53.594;9.952;2023-07-24T06:17:49;100075.63;;;19.69;77.84
28921;BME280;16035;53.594;9.952;2023-07-24T06:19:50;100075.63;;;19.69;77.96
28921;BME280;16035;53.594;9.952;2023-07-24T06:21:50;100068.50;;;19.68;78.03
28921;BME280;16035;53.594;9.952;2023-07-24T06:23:50;100072.66;;;19.75;78.13
28921;BME280;16035;53.594;9.952;2023-07-24T06:25:51;100064.97;;;19.80;77.82
28921;BME280;16035;53.594;9.952;2023-07-24T06:27:53;100062.13;;;19.89;77.75
28921;BME280;16035;53.594;9.952;2023-07-24T06:29:53;100064.00;;;19.97;77.69
28921;BME280;16035;53.594;9.952;2023-07-24T06:31:53;100059.75;;;20.00;77.43
28921;BME280;16035;53.594;9.952;2023-07-24T06:33:54;100063.00;;;20.02;77.33
28921;BME280;16035;53.594;9.952;2023-07-24T06:35:54;100058.94;;;19.99;77.26
28921;BME280;16035;53.594;9.952;2023-07-24T06:37:54;100060.44;;;19.97;77.30
28921;BME280;16035;53.594;9.952;2023-07-24T06:39:54;100057.69;;;19.97;76.93
28921;BME280;16035;53.594;9.952;2023-07-24T06:41:55;100064.69;;;19.94;76.95
28921;BME280;16035;53.594;9.952;2023-07-24T06:43:55;100061.47;;;19.92;76.81
28921;BME280;16035;53.594;9.952;2023-07-24T06:45:56;100051.25;;;19.92;76.95
28921;BME280;16035;53.594;9.952;2023-07-24T06:47:56;100055.59;;;19.93;77.07
28921;BME280;16035;53.594;9.952;2023-07-24T06:49:56;100052.03;;;19.93;77.05
28921;BME280;16035;53.594;9.952;2023-07-24T06:51:57;100058.38;;;19.93;76.94
28921;BME280;16035;53.594;9.952;2023-07-24T06:53:58;100053.09;;;20.01;77.23
28921;BME280;16035;53.594;9.952;2023-07-24T06:55:58;100054.63;;;20.10;77.01
28921;BME280;16035;53.594;9.952;2023-07-24T06:57:58;100057.97;;;20.16;76.92
28921;BME280;16035;53.594;9.952;2023-07-24T06:59:59;100062.81;;;20.19;76.58
28921;BME280;16035;53.594;9.952;2023-07-24T07:01:59;100060.38;;;20.17;76.95
28921;BME280;16035;53.594;9.952;2023-07-24T07:03:59;100062.31;;;20.17;76.63
28921;BME280;16035;53.594;9.952;2023-07-24T07:06:00;100062.31;;;20.17;76.51
28921;BME280;16035;53.594;9.952;2023-07-24T07:08:01;100058.63;;;20.13;76.36
28921;BME280;16035;53.594;9.952;2023-07-24T07:10:01;100055.78;;;20.09;76.30
28921;BME280;16035;53.594;9.952;2023-07-24T07:12:02;100048.53;;;20.05;76.26
28921;BME280;16035;53.594;9.952;2023-07-24T07:14:02;100060.22;;;20.02;76.12
28921;BME280;16035;53.594;9.952;2023-07-24T07:16:03;100061.03;;;20.02;76.31
28921;BME280;16035;53.594;9.952;2023-07-24T07:18:03;100060.59;;;20.00;76.09
28921;BME280;16035;53.594;9.952;2023-07-24T07:20:04;100062.50;;;20.00;76.06
28921;BME280;16035;53.594;9.952;2023-07-24T07:22:05;100060.09;;;19.98;75.92
28921;BME280;16035;53.594;9.952;2023-07-24T07:24:05;100060.78;;;19.95;75.83
28921;BME280;16035;53.594;9.952;2023-07-24T07:26:06;100059.16;;;19.94;75.99
28921;BME280;16035;53.594;9.952;2023-07-24T07:28:06;100058.00;;;19.95;75.83
28921;BME280;16035;53.594;9.952;2023-07-24T07:30:07;100052.97;;;19.97;75.98
28921;BME280;16035;53.594;9.952;2023-07-24T07:32:07;100053.44;;;19.99;75.79
28921;BME280;16035;53.594;9.952;2023-07-24T07:34:08;100050.66;;;19.99;75.66
28921;BME280;16035;53.594;9.952;2023-07-24T07:36:09;100056.19;;;19.99;75.66
28921;BME280;16035;53.594;9.952;2023-07-24T07:38:09;100061.84;;;20.03;76.02
28921;BME280;16035;53.594;9.952;2023-07-24T07:40:10;100047.03;;;20.07;75.91
28921;BME280;16035;53.594;9.952;2023-07-24T07:42:10;100052.88;;;20.06;75.68
28921;BME280;16035;53.594;9.952;2023-07-24T07:44:11;100058.06;;;20.07;75.74
28921;BME280;16035;53.594;9.952;2023-07-24T07:46:11;100057.38;;;20.10;75.58
28921;BME280;16035;53.594;9.952;2023-07-24T07:48:11;100069.56;;;20.09;75.18
28921;BME280;16035;53.594;9.952;2023-07-24T07:50:12;100065.97;;;20.09;75.01
28921;BME280;16035;53.594;9.952;2023-07-24T07:52:12;100069.22;;;20.11;75.20
28921;BME280;16035;53.594;9.952;2023-07-24T07:54:17;100056.34;;;20.15;75.16
28921;BME280;16035;53.594;9.952;2023-07-24T07:56:17;100055.69;;;20.18;75.08
28921;BME280;16035;53.594;9.952;2023-07-24T07:58:17;100043.13;;;20.20;75.06
28921;BME280;16035;53.594;9.952;2023-07-24T08:00:18;100036.22;;;20.27;74.84
28921;BME280;16035;53.594;9.952;2023-07-24T08:02:18;100036.34;;;20.30;74.66
28921;BME280;16035;53.594;9.952;2023-07-24T08:04:18;100034.19;;;20.36;75.03
28921;BME280;16035;53.594;9.952;2023-07-24T08:06:19;100041.78;;;20.39;74.40
28921;BME280;16035;53.594;9.952;2023-07-24T08:08:21;100053.16;;;20.37;74.38
28921;BME280;16035;53.594;9.952;2023-07-24T08:10:21;100054.53;;;20.43;74.80
28921;BME280;16035;53.594;9.952;2023-07-24T08:12:22;100053.38;;;20.44;74.50
28921;BME280;16035;53.594;9.952;2023-07-24T08:14:22;100054.34;;;20.49;74.63
28921;BME280;16035;53.594;9.952;2023-07-24T08:16:22;100043.63;;;20.47;74.70
28921;BME280;16035;53.594;9.952;2023-07-24T08:18:23;100041.34;;;20.49;74.48
28921;BME280;16035;53.594;9.952;2023-07-24T08:20:23;100037.78;;;20.49;74.32
28921;BME280;16035;53.594;9.952;2023-07-24T08:22:24;100035.63;;;20.54;74.43
28921;BME280;16035;53.594;9.952;2023-07-24T08:24:24;100035.72;;;20.58;74.38
28921;BME280;16035;53.594;9.952;2023-07-24T08:26:24;100036.19;;;20.60;74.38
28921;BME280;16035;53.594;9.952;2023-07-24T08:28:26;100039.50;;;20.65;73.83
28921;BME280;16035;53.594;9.952;2023-07-24T08:30:26;100035.16;;;20.64;73.89
28921;BME280;16035;53.594;9.952;2023-07-24T08:32:26;100041.81;;;20.63;73.76
28921;BME280;16035;53.594;9.952;2023-07-24T08:34:27;100036.63;;;20.62;74.10
28921;BME280;16035;53.594;9.952;2023-07-24T08:36:27;100039.88;;;20.64;73.67
28921;BME280;16035;53.594;9.952;2023-07-24T08:38:28;100030.31;;;20.61;73.44
28921;BME280;16035;53.594;9.952;2023-07-24T08:40:28;100027.91;;;20.60;73.44
28921;BME280;16035;53.594;9.952;2023-07-24T08:42:29;100036.19;;;20.60;73.65
28921;BME280;16035;53.594;9.952;2023-07-24T08:44:31;100031.03;;;20.58;73.68
28921;BME280;16035;53.594;9.952;2023-07-24T08:46:35;100037.22;;;20.55;73.49
28921;BME280;16035;53.594;9.952;2023-07-24T08:48:38;100037.47;;;20.50;73.54
28921;BME280;16035;53.594;9.952;2023-07-24T08:50:38;100039.06;;;20.51;73.46
28921;BME280;16035;53.594;9.952;2023-07-24T08:52:39;100041.59;;;20.56;73.50
28921;BME280;16035;53.594;9.952;2023-07-24T08:54:39;100051.25;;;20.62;73.43
28921;BME280;16035;53.594;9.952;2023-07-24T08:56:40;100050.91;;;20.64;72.95
28921;BME280;16035;53.594;9.952;2023-07-24T08:58:41;100047.78;;;20.65;73.06
28921;BME280;16035;53.594;9.952;2023-07-24T09:00:45;100044.00;;;20.82;73.18
28921;BME280;16035;53.594;9.952;2023-07-24T09:02:45;100040.63;;;20.89;72.48
28921;BME280;16035;53.594;9.952;2023-07-24T09:04:45;100032.59;;;20.96;71.88
28921;BME280;16035;53.594;9.952;2023-07-24T09:06:46;100033.78;;;21.35;72.59
28921;BME280;16035;53.594;9.952;2023-07-24T09:08:46;100026.06;;;21.85;72.11
28921;BME280;16035;53.594;9.952;2023-07-24T09:10:50;100023.53;;;22.39;71.60
28921;BME280;16035;53.594;9.952;2023-07-24T09:12:50;100026.75;;;22.73;70.79
28921;BME280;16035;53.594;9.952;2023-07-24T09:15:04;100036.53;;;22.86;69.34
28921;BME280;16035;53.594;9.952;2023-07-24T09:17:06;100033.50;;;22.76;68.48
28921;BME280;16035;53.594;9.952;2023-07-24T09:19:16;100028.72;;;22.57;68.93
28921;BME280;16035;53.594;9.952;2023-07-24T09:21:30;100024.78;;;22.58;69.17
28921;BME280;16035;53.594;9.952;2023-07-24T09:23:30;100021.22;;;22.57;69.33
28921;BME280;16035;53.594;9.952;2023-07-24T09:25:32;100020.88;;;22.43;68.83
28921;BME280;16035;53.594;9.952;2023-07-24T09:27:32;100022.41;;;22.25;68.09
28921;BME280;16035;53.594;9.952;2023-07-24T09:29:33;100022.88;;;21.99;67.63
28921;BME280;16035;53.594;9.952;2023-07-24T09:31:35;100028.75;;;21.81;67.97
28921;BME280;16035;53.594;9.952;2023-07-24T09:33:38;100033.19;;;21.70;68.41
28921;BME280;16035;53.594;9.952;2023-07-24T09:35:38;100044.41;;;21.61;68.45
28921;BME280;16035;53.594;9.952;2023-07-24T09:37:39;100040.06;;;21.48;67.93
28921;BME280;16035;53.594;9.952;2023-07-24T09:39:39;100026.16;;;21.44;68.39
28921;BME280;16035;53.594;9.952;2023-07-24T09:41:40;100023.13;;;21.50;68.95
28921;BME280;16035;53.594;9.952;2023-07-24T09:43:41;100022.28;;;21.61;69.14
28921;BME280;16035;53.594;9.952;2023-07-24T09:45:43;100029.09;;;21.80;68.64
28921;BME280;16035;53.594;9.952;2023-07-24T09:47:44;100020.13;;;21.99;68.65
28921;BME280;16035;53.594;9.952;2023-07-24T09:49:45;100006.75;;;22.48;68.98
28921;BME280;16035;53.594;9.952;2023-07-24T09:51:47;100010.66;;;23.14;68.24
28921;BME280;16035;53.594;9.952;2023-07-24T09:54:00;99988.53;;;23.56;66.27
28921;BME280;16035;53.594;9.952;2023-07-24T09:56:05;99981.66;;;23.69;65.25
28921;BME280;16035;53.594;9.952;2023-07-24T09:58:05;99988.19;;;23.58;65.15
28921;BME280;16035;53.594;9.952;2023-07-24T10:00:07;99992.91;;;23.38;64.94
28921;BME280;16035;53.594;9.952;2023-07-24T10:02:11;99993.28;;;23.17;64.34
28921;BME280;16035;53.594;9.952;2023-07-24T10:04:13;99981.59;;;23.08;65.23
28921;BME280;16035;53.594;9.952;2023-07-24T10:06:16;99985.72;;;23.14;65.47
28921;BME280;16035;53.594;9.952;2023-07-24T10:08:18;99997.22;;;23.16;65.46
28921;BME280;16035;53.594;9.952;2023-07-24T10:10:19;99991.16;;;23.30;65.76
28921;BME280;16035;53.594;9.952;2023-07-24T10:12:22;99994.09;;;23.37;64.55
28921;BME280;16035;53.594;9.952;2023-07-24T10:14:23;99986.94;;;23.36;64.43
28921;BME280;16035;53.594;9.952;2023-07-24T10:16:24;99993.06;;;23.26;64.36
28921;BME280;16035;53.594;9.952;2023-07-24T10:18:27;100002.69;;;23.12;64.40
28921;BME280;16035;53.594;9.952;2023-07-24T10:20:39;100001.88;;;22.92;63.98
28921;BME280;16035;53.594;9.952;2023-07-24T10:22:41;99999.38;;;22.71;63.94
28921;BME280;16035;53.594;9.952;2023-07-24T10:24:42;99993.69;;;22.64;64.67
28921;BME280;16035;53.594;9.952;2023-07-24T10:26:42;99995.13;;;22.58;64.75
28921;BME280;16035;53.594;9.952;2023-07-24T10:28:46;100001.53;;;22.62;64.94
28921;BME280;16035;53.594;9.952;2023-07-24T10:30:54;99994.13;;;22.66;64.58
28921;BME280;16035;53.594;9.952;2023-07-24T10:35:08;99992.03;;;22.95;64.71